Dickert, Alabama
Current Conditions -  °F | °C
As of 3:15 PM on Sunday 21 Dec 2014 (Local Time) from KLGC Reporting Station
Overcast Overcast  
Wind Chill: 55°   Ceiling: 1200
Heat Index: 55°   Visibility: 10mi
Dew Point: 50°   Wind: 5mph
Humidity: 85%   Direction: 100°E
Pressure: 30.08"   Gusts: NA
Location:  33.1661°N, 85.5111°W
Report Text: KLGC 212115Z AUTO 10004KT 10SM OVC012 13/10 A3008 RMK AO2 T01260101
Loading
Personal Weather Stations






























Interactive Weather Map New forecast layout! Learn more

10-Day Weather Forecast

Advertisements
Track Severe Weather on mobile